sensor_id;sensor_type;location;lat;lon;timestamp;P1;durP1;ratioP1;P2;durP2;ratioP2
41887;SDS011;63122;52.424;13.458;2022-11-15T00:01:30;47.60;;;29.53;;
41887;SDS011;63122;52.424;13.458;2022-11-15T00:04:03;43.57;;;28.77;;
41887;SDS011;63122;52.424;13.458;2022-11-15T00:06:33;52.10;;;30.03;;
41887;SDS011;63122;52.424;13.458;2022-11-15T00:09:04;52.40;;;29.87;;
41887;SDS011;63122;52.424;13.458;2022-11-15T00:11:34;46.67;;;31.37;;
41887;SDS011;63122;52.424;13.458;2022-11-15T00:14:05;47.80;;;30.30;;
41887;SDS011;63122;52.424;13.458;2022-11-15T00:16:35;51.97;;;32.37;;
41887;SDS011;63122;52.424;13.458;2022-11-15T00:19:08;48.57;;;31.43;;
41887;SDS011;63122;52.424;13.458;2022-11-15T00:21:39;48.43;;;29.87;;
41887;SDS011;63122;52.424;13.458;2022-11-15T00:24:09;52.90;;;31.47;;
41887;SDS011;63122;52.424;13.458;2022-11-15T00:26:40;50.40;;;31.20;;
41887;SDS011;63122;52.424;13.458;2022-11-15T00:29:11;50.13;;;31.23;;
41887;SDS011;63122;52.424;13.458;2022-11-15T00:31:41;52.33;;;32.03;;
41887;SDS011;63122;52.424;13.458;2022-11-15T00:34:14;48.33;;;30.20;;
41887;SDS011;63122;52.424;13.458;2022-11-15T00:36:44;52.97;;;32.30;;
41887;SDS011;63122;52.424;13.458;2022-11-15T00:39:14;46.43;;;29.57;;
41887;SDS011;63122;52.424;13.458;2022-11-15T00:41:44;48.80;;;30.17;;
41887;SDS011;63122;52.424;13.458;2022-11-15T00:44:15;48.20;;;31.47;;
41887;SDS011;63122;52.424;13.458;2022-11-15T00:46:45;54.37;;;31.53;;
41887;SDS011;63122;52.424;13.458;2022-11-15T00:49:18;53.07;;;32.10;;
41887;SDS011;63122;52.424;13.458;2022-11-15T00:51:48;51.13;;;31.73;;
41887;SDS011;63122;52.424;13.458;2022-11-15T00:54:18;53.20;;;32.50;;
41887;SDS011;63122;52.424;13.458;2022-11-15T00:56:48;50.63;;;31.37;;
41887;SDS011;63122;52.424;13.458;2022-11-15T00:59:19;53.27;;;30.30;;
41887;SDS011;63122;52.424;13.458;2022-11-15T01:01:49;52.70;;;32.07;;
41887;SDS011;63122;52.424;13.458;2022-11-15T01:04:22;48.97;;;31.57;;
41887;SDS011;63122;52.424;13.458;2022-11-15T01:06:52;54.63;;;32.70;;
41887;SDS011;63122;52.424;13.458;2022-11-15T01:09:22;49.10;;;32.03;;
41887;SDS011;63122;52.424;13.458;2022-11-15T01:11:53;54.27;;;32.37;;
41887;SDS011;63122;52.424;13.458;2022-11-15T01:14:23;52.60;;;32.00;;
41887;SDS011;63122;52.424;13.458;2022-11-15T01:16:53;52.50;;;33.47;;
41887;SDS011;63122;52.424;13.458;2022-11-15T01:19:26;52.57;;;32.57;;
41887;SDS011;63122;52.424;13.458;2022-11-15T01:21:56;54.30;;;32.17;;
41887;SDS011;63122;52.424;13.458;2022-11-15T01:24:27;50.37;;;33.47;;
41887;SDS011;63122;52.424;13.458;2022-11-15T01:26:57;50.60;;;31.80;;
41887;SDS011;63122;52.424;13.458;2022-11-15T01:29:27;52.77;;;33.70;;
41887;SDS011;63122;52.424;13.458;2022-11-15T01:31:57;53.20;;;33.20;;
41887;SDS011;63122;52.424;13.458;2022-11-15T01:34:30;52.90;;;32.77;;
41887;SDS011;63122;52.424;13.458;2022-11-15T01:37:01;59.40;;;33.37;;
41887;SDS011;63122;52.424;13.458;2022-11-15T01:39:31;52.23;;;32.90;;
41887;SDS011;63122;52.424;13.458;2022-11-15T01:42:01;57.57;;;33.33;;
41887;SDS011;63122;52.424;13.458;2022-11-15T01:44:43;55.23;;;33.90;;
41887;SDS011;63122;52.424;13.458;2022-11-15T01:47:16;53.30;;;33.10;;
41887;SDS011;63122;52.424;13.458;2022-11-15T01:49:53;55.57;;;34.10;;
41887;SDS011;63122;52.424;13.458;2022-11-15T01:52:27;52.70;;;32.40;;
41887;SDS011;63122;52.424;13.458;2022-11-15T01:55:01;55.43;;;33.17;;
41887;SDS011;63122;52.424;13.458;2022-11-15T01:57:35;52.33;;;33.57;;
41887;SDS011;63122;52.424;13.458;2022-11-15T02:00:06;52.47;;;33.13;;
41887;SDS011;63122;52.424;13.458;2022-11-15T02:02:37;49.90;;;32.07;;
41887;SDS011;63122;52.424;13.458;2022-11-15T02:05:10;54.27;;;33.30;;
41887;SDS011;63122;52.424;13.458;2022-11-15T02:07:41;54.70;;;33.33;;
41887;SDS011;63122;52.424;13.458;2022-11-15T02:10:12;54.87;;;32.63;;
41887;SDS011;63122;52.424;13.458;2022-11-15T02:12:46;52.30;;;33.20;;
41887;SDS011;63122;52.424;13.458;2022-11-15T02:15:18;55.67;;;33.13;;
41887;SDS011;63122;52.424;13.458;2022-11-15T02:17:52;54.43;;;32.90;;
41887;SDS011;63122;52.424;13.458;2022-11-15T02:20:39;51.23;;;31.73;;
41887;SDS011;63122;52.424;13.458;2022-11-15T02:29:20;57.13;;;32.70;;
41887;SDS011;63122;52.424;13.458;2022-11-15T02:32:02;54.27;;;32.97;;
41887;SDS011;63122;52.424;13.458;2022-11-15T02:34:46;50.13;;;33.40;;
41887;SDS011;63122;52.424;13.458;2022-11-15T02:37:23;56.47;;;33.50;;
41887;SDS011;63122;52.424;13.458;2022-11-15T02:40:00;54.53;;;32.87;;
41887;SDS011;63122;52.424;13.458;2022-11-15T02:42:39;58.03;;;33.73;;
41887;SDS011;63122;52.424;13.458;2022-11-15T02:45:35;60.47;;;33.87;;
41887;SDS011;63122;52.424;13.458;2022-11-15T02:48:11;53.73;;;32.73;;
41887;SDS011;63122;52.424;13.458;2022-11-15T02:50:43;53.00;;;32.67;;
41887;SDS011;63122;52.424;13.458;2022-11-15T02:53:15;51.77;;;32.97;;
41887;SDS011;63122;52.424;13.458;2022-11-15T02:55:45;51.90;;;31.10;;
41887;SDS011;63122;52.424;13.458;2022-11-15T03:01:12;54.33;;;33.77;;
41887;SDS011;63122;52.424;13.458;2022-11-15T03:03:55;51.07;;;32.07;;
41887;SDS011;63122;52.424;13.458;2022-11-15T03:06:34;57.53;;;34.53;;
41887;SDS011;63122;52.424;13.458;2022-11-15T03:09:13;54.63;;;33.43;;
41887;SDS011;63122;52.424;13.458;2022-11-15T03:11:58;53.53;;;33.57;;
41887;SDS011;63122;52.424;13.458;2022-11-15T03:14:34;55.03;;;31.23;;
41887;SDS011;63122;52.424;13.458;2022-11-15T03:17:08;56.27;;;33.53;;
41887;SDS011;63122;52.424;13.458;2022-11-15T03:19:47;53.00;;;32.23;;
41887;SDS011;63122;52.424;13.458;2022-11-15T03:22:20;54.97;;;32.07;;
41887;SDS011;63122;52.424;13.458;2022-11-15T03:24:54;52.70;;;32.97;;
41887;SDS011;63122;52.424;13.458;2022-11-15T03:27:28;52.60;;;32.90;;
41887;SDS011;63122;52.424;13.458;2022-11-15T03:30:06;53.17;;;32.63;;
41887;SDS011;63122;52.424;13.458;2022-11-15T03:32:39;53.80;;;32.70;;
41887;SDS011;63122;52.424;13.458;2022-11-15T03:35:17;52.63;;;32.00;;
41887;SDS011;63122;52.424;13.458;2022-11-15T03:37:50;54.57;;;31.57;;
41887;SDS011;63122;52.424;13.458;2022-11-15T03:40:29;48.03;;;29.33;;
41887;SDS011;63122;52.424;13.458;2022-11-15T03:43:05;53.03;;;31.77;;
41887;SDS011;63122;52.424;13.458;2022-11-15T03:45:41;55.90;;;30.53;;
41887;SDS011;63122;52.424;13.458;2022-11-15T03:48:17;52.27;;;33.10;;
41887;SDS011;63122;52.424;13.458;2022-11-15T03:50:55;50.10;;;32.73;;
41887;SDS011;63122;52.424;13.458;2022-11-15T03:53:25;52.93;;;31.37;;
41887;SDS011;63122;52.424;13.458;2022-11-15T03:55:59;54.43;;;32.50;;
41887;SDS011;63122;52.424;13.458;2022-11-15T03:58:29;52.23;;;32.57;;
41887;SDS011;63122;52.424;13.458;2022-11-15T04:00:59;51.17;;;31.33;;
41887;SDS011;63122;52.424;13.458;2022-11-15T04:03:29;60.20;;;33.87;;
41887;SDS011;63122;52.424;13.458;2022-11-15T04:06:03;50.57;;;32.27;;
41887;SDS011;63122;52.424;13.458;2022-11-15T04:08:33;57.37;;;32.13;;
41887;SDS011;63122;52.424;13.458;2022-11-15T04:11:04;52.87;;;33.07;;
41887;SDS011;63122;52.424;13.458;2022-11-15T04:13:34;55.57;;;32.83;;
41887;SDS011;63122;52.424;13.458;2022-11-15T04:16:04;54.00;;;32.43;;
41887;SDS011;63122;52.424;13.458;2022-11-15T04:18:34;54.57;;;32.70;;
41887;SDS011;63122;52.424;13.458;2022-11-15T04:21:07;53.73;;;31.47;;
41887;SDS011;63122;52.424;13.458;2022-11-15T04:23:50;55.03;;;33.60;;
41887;SDS011;63122;52.424;13.458;2022-11-15T04:26:41;56.33;;;32.33;;
41887;SDS011;63122;52.424;13.458;2022-11-15T04:29:11;57.23;;;33.57;;
41887;SDS011;63122;52.424;13.458;2022-11-15T04:31:54;59.90;;;33.73;;
41887;SDS011;63122;52.424;13.458;2022-11-15T04:34:24;54.03;;;32.00;;
41887;SDS011;63122;52.424;13.458;2022-11-15T04:36:57;53.20;;;31.90;;
41887;SDS011;63122;52.424;13.458;2022-11-15T04:39:40;50.73;;;32.13;;
41887;SDS011;63122;52.424;13.458;2022-11-15T04:42:10;60.87;;;33.57;;
41887;SDS011;63122;52.424;13.458;2022-11-15T04:44:41;53.70;;;32.93;;
41887;SDS011;63122;52.424;13.458;2022-11-15T04:47:11;56.13;;;34.90;;
41887;SDS011;63122;52.424;13.458;2022-11-15T04:49:42;55.70;;;34.27;;
41887;SDS011;63122;52.424;13.458;2022-11-15T04:52:16;55.73;;;33.30;;
41887;SDS011;63122;52.424;13.458;2022-11-15T04:54:48;60.03;;;33.50;;
41887;SDS011;63122;52.424;13.458;2022-11-15T04:57:18;56.83;;;32.93;;
41887;SDS011;63122;52.424;13.458;2022-11-15T04:59:49;53.57;;;31.87;;
41887;SDS011;63122;52.424;13.458;2022-11-15T05:02:20;59.13;;;32.47;;
41887;SDS011;63122;52.424;13.458;2022-11-15T05:04:50;57.00;;;33.80;;
41887;SDS011;63122;52.424;13.458;2022-11-15T05:07:21;60.23;;;34.83;;
41887;SDS011;63122;52.424;13.458;2022-11-15T05:09:52;57.23;;;33.03;;
41887;SDS011;63122;52.424;13.458;2022-11-15T05:12:22;52.93;;;31.77;;
41887;SDS011;63122;52.424;13.458;2022-11-15T05:14:52;56.30;;;34.30;;
41887;SDS011;63122;52.424;13.458;2022-11-15T05:17:22;51.63;;;32.30;;
41887;SDS011;63122;52.424;13.458;2022-11-15T05:19:52;52.90;;;32.23;;
41887;SDS011;63122;52.424;13.458;2022-11-15T05:22:25;53.83;;;32.83;;
41887;SDS011;63122;52.424;13.458;2022-11-15T05:24:56;55.10;;;33.63;;
41887;SDS011;63122;52.424;13.458;2022-11-15T05:27:27;54.00;;;33.53;;
41887;SDS011;63122;52.424;13.458;2022-11-15T05:29:57;54.30;;;33.63;;
41887;SDS011;63122;52.424;13.458;2022-11-15T05:32:27;58.37;;;32.77;;
41887;SDS011;63122;52.424;13.458;2022-11-15T05:34:58;54.70;;;33.97;;
41887;SDS011;63122;52.424;13.458;2022-11-15T05:37:31;55.67;;;34.30;;
41887;SDS011;63122;52.424;13.458;2022-11-15T05:40:02;56.00;;;34.93;;
41887;SDS011;63122;52.424;13.458;2022-11-15T05:42:33;60.27;;;34.40;;
41887;SDS011;63122;52.424;13.458;2022-11-15T05:45:04;59.67;;;33.43;;
41887;SDS011;63122;52.424;13.458;2022-11-15T05:47:36;53.77;;;33.60;;
41887;SDS011;63122;52.424;13.458;2022-11-15T05:50:10;53.67;;;33.17;;
41887;SDS011;63122;52.424;13.458;2022-11-15T05:52:45;67.30;;;33.77;;
41887;SDS011;63122;52.424;13.458;2022-11-15T05:55:16;53.27;;;32.77;;
41887;SDS011;63122;52.424;13.458;2022-11-15T05:57:46;50.57;;;32.63;;
41887;SDS011;63122;52.424;13.458;2022-11-15T06:00:17;48.70;;;31.23;;
41887;SDS011;63122;52.424;13.458;2022-11-15T06:02:48;53.80;;;33.40;;
41887;SDS011;63122;52.424;13.458;2022-11-15T06:05:18;52.97;;;32.83;;
41887;SDS011;63122;52.424;13.458;2022-11-15T06:07:51;57.40;;;33.17;;
41887;SDS011;63122;52.424;13.458;2022-11-15T06:10:21;60.37;;;33.00;;
41887;SDS011;63122;52.424;13.458;2022-11-15T06:12:55;54.43;;;32.67;;
41887;SDS011;63122;52.424;13.458;2022-11-15T06:15:26;50.33;;;32.50;;
41887;SDS011;63122;52.424;13.458;2022-11-15T06:17:57;53.43;;;32.07;;
41887;SDS011;63122;52.424;13.458;2022-11-15T06:20:28;54.27;;;32.53;;
41887;SDS011;63122;52.424;13.458;2022-11-15T06:23:03;52.47;;;32.43;;
41887;SDS011;63122;52.424;13.458;2022-11-15T06:25:34;57.23;;;33.23;;
41887;SDS011;63122;52.424;13.458;2022-11-15T06:28:04;50.50;;;30.70;;
41887;SDS011;63122;52.424;13.458;2022-11-15T06:30:34;54.47;;;32.53;;
41887;SDS011;63122;52.424;13.458;2022-11-15T06:33:05;55.90;;;32.53;;
41887;SDS011;63122;52.424;13.458;2022-11-15T06:35:35;49.80;;;31.97;;
41887;SDS011;63122;52.424;13.458;2022-11-15T06:38:09;52.37;;;32.33;;
41887;SDS011;63122;52.424;13.458;2022-11-15T06:40:40;54.83;;;32.63;;
41887;SDS011;63122;52.424;13.458;2022-11-15T06:43:10;57.47;;;33.03;;
41887;SDS011;63122;52.424;13.458;2022-11-15T06:45:41;53.80;;;32.87;;
41887;SDS011;63122;52.424;13.458;2022-11-15T06:48:11;58.37;;;33.17;;
41887;SDS011;63122;52.424;13.458;2022-11-15T06:50:41;56.70;;;32.93;;
41887;SDS011;63122;52.424;13.458;2022-11-15T06:53:14;52.63;;;31.20;;
41887;SDS011;63122;52.424;13.458;2022-11-15T06:55:44;53.43;;;31.97;;
41887;SDS011;63122;52.424;13.458;2022-11-15T06:58:21;54.20;;;31.30;;
41887;SDS011;63122;52.424;13.458;2022-11-15T07:00:51;51.73;;;33.27;;
41887;SDS011;63122;52.424;13.458;2022-11-15T07:03:22;53.30;;;33.37;;
41887;SDS011;63122;52.424;13.458;2022-11-15T07:05:52;54.50;;;33.90;;
41887;SDS011;63122;52.424;13.458;2022-11-15T07:08:34;62.40;;;32.27;;
41887;SDS011;63122;52.424;13.458;2022-11-15T07:11:06;54.37;;;32.47;;
41887;SDS011;63122;52.424;13.458;2022-11-15T07:13:38;54.43;;;32.53;;
41887;SDS011;63122;52.424;13.458;2022-11-15T07:16:09;52.83;;;33.30;;
41887;SDS011;63122;52.424;13.458;2022-11-15T07:18:40;54.30;;;32.77;;
41887;SDS011;63122;52.424;13.458;2022-11-15T07:21:10;55.73;;;33.50;;
41887;SDS011;63122;52.424;13.458;2022-11-15T07:23:43;54.90;;;33.33;;
41887;SDS011;63122;52.424;13.458;2022-11-15T07:26:13;51.03;;;32.27;;
41887;SDS011;63122;52.424;13.458;2022-11-15T07:28:44;54.63;;;32.97;;
41887;SDS011;63122;52.424;13.458;2022-11-15T07:31:14;52.90;;;32.03;;
41887;SDS011;63122;52.424;13.458;2022-11-15T07:33:44;58.53;;;34.37;;
41887;SDS011;63122;52.424;13.458;2022-11-15T07:36:14;54.07;;;33.30;;
41887;SDS011;63122;52.424;13.458;2022-11-15T07:38:47;56.90;;;32.67;;
41887;SDS011;63122;52.424;13.458;2022-11-15T07:41:17;51.20;;;32.70;;
41887;SDS011;63122;52.424;13.458;2022-11-15T07:43:50;55.23;;;32.30;;
41887;SDS011;63122;52.424;13.458;2022-11-15T07:46:21;49.70;;;29.30;;
41887;SDS011;63122;52.424;13.458;2022-11-15T07:48:51;52.03;;;30.53;;
41887;SDS011;63122;52.424;13.458;2022-11-15T07:51:21;48.73;;;31.10;;
41887;SDS011;63122;52.424;13.458;2022-11-15T07:53:54;50.77;;;31.27;;
41887;SDS011;63122;52.424;13.458;2022-11-15T07:56:24;52.43;;;31.07;;
41887;SDS011;63122;52.424;13.458;2022-11-15T07:58:54;50.30;;;30.57;;
41887;SDS011;63122;52.424;13.458;2022-11-15T08:01:25;47.53;;;29.70;;
41887;SDS011;63122;52.424;13.458;2022-11-15T08:03:56;47.27;;;29.30;;
41887;SDS011;63122;52.424;13.458;2022-11-15T08:06:26;47.50;;;29.23;;
41887;SDS011;63122;52.424;13.458;2022-11-15T08:08:59;50.47;;;29.77;;
41887;SDS011;63122;52.424;13.458;2022-11-15T08:11:29;45.07;;;28.87;;
41887;SDS011;63122;52.424;13.458;2022-11-15T08:14:00;51.67;;;31.10;;
41887;SDS011;63122;52.424;13.458;2022-11-15T08:16:30;45.30;;;29.07;;
41887;SDS011;63122;52.424;13.458;2022-11-15T08:19:01;45.03;;;29.67;;
41887;SDS011;63122;52.424;13.458;2022-11-15T08:21:31;43.87;;;29.37;;
41887;SDS011;63122;52.424;13.458;2022-11-15T08:24:05;41.80;;;26.47;;
41887;SDS011;63122;52.424;13.458;2022-11-15T08:26:35;42.43;;;27.50;;
41887;SDS011;63122;52.424;13.458;2022-11-15T08:29:06;44.13;;;27.53;;
41887;SDS011;63122;52.424;13.458;2022-11-15T08:31:39;44.27;;;27.33;;
41887;SDS011;63122;52.424;13.458;2022-11-15T08:34:10;44.93;;;27.80;;
41887;SDS011;63122;52.424;13.458;2022-11-15T08:36:40;46.27;;;27.00;;
41887;SDS011;63122;52.424;13.458;2022-11-15T08:39:15;40.97;;;25.77;;
41887;SDS011;63122;52.424;13.458;2022-11-15T08:41:45;39.53;;;26.47;;
41887;SDS011;63122;52.424;13.458;2022-11-15T08:44:15;45.83;;;26.93;;
41887;SDS011;63122;52.424;13.458;2022-11-15T08:46:45;38.97;;;26.40;;
41887;SDS011;63122;52.424;13.458;2022-11-15T08:49:15;39.53;;;26.27;;
41887;SDS011;63122;52.424;13.458;2022-11-15T08:51:46;48.60;;;26.47;;
41887;SDS011;63122;52.424;13.458;2022-11-15T08:54:19;41.27;;;26.67;;
41887;SDS011;63122;52.424;13.458;2022-11-15T08:56:48;38.23;;;25.93;;
41887;SDS011;63122;52.424;13.458;2022-11-15T08:59:19;36.27;;;24.93;;
41887;SDS011;63122;52.424;13.458;2022-11-15T09:01:49;40.33;;;24.57;;
41887;SDS011;63122;52.424;13.458;2022-11-15T09:04:19;37.47;;;23.97;;
41887;SDS011;63122;52.424;13.458;2022-11-15T09:06:50;38.07;;;25.30;;
41887;SDS011;63122;52.424;13.458;2022-11-15T09:09:23;38.23;;;25.00;;
41887;SDS011;63122;52.424;13.458;2022-11-15T09:11:53;38.30;;;24.97;;
41887;SDS011;63122;52.424;13.458;2022-11-15T09:14:29;39.30;;;26.30;;
41887;SDS011;63122;52.424;13.458;2022-11-15T09:16:59;38.17;;;25.07;;
41887;SDS011;63122;52.424;13.458;2022-11-15T09:19:30;33.70;;;23.20;;
41887;SDS011;63122;52.424;13.458;2022-11-15T09:22:00;37.73;;;23.50;;
41887;SDS011;63122;52.424;13.458;2022-11-15T09:24:34;37.17;;;23.70;;
41887;SDS011;63122;52.424;13.458;2022-11-15T09:27:04;33.57;;;21.50;;
41887;SDS011;63122;52.424;13.458;2022-11-15T09:29:34;36.10;;;22.73;;
41887;SDS011;63122;52.424;13.458;2022-11-15T09:32:04;32.87;;;22.00;;
41887;SDS011;63122;52.424;13.458;2022-11-15T09:34:35;31.37;;;21.57;;
41887;SDS011;63122;52.424;13.458;2022-11-15T09:37:05;30.50;;;22.17;;
41887;SDS011;63122;52.424;13.458;2022-11-15T09:39:38;33.33;;;22.07;;
41887;SDS011;63122;52.424;13.458;2022-11-15T09:42:12;30.53;;;21.67;;
41887;SDS011;63122;52.424;13.458;2022-11-15T09:44:57;27.87;;;19.77;;
41887;SDS011;63122;52.424;13.458;2022-11-15T09:47:51;31.53;;;21.10;;
41887;SDS011;63122;52.424;13.458;2022-11-15T09:50:34;28.77;;;21.20;;
41887;SDS011;63122;52.424;13.458;2022-11-15T09:53:10;30.93;;;21.93;;
41887;SDS011;63122;52.424;13.458;2022-11-15T09:55:48;30.73;;;20.87;;
41887;SDS011;63122;52.424;13.458;2022-11-15T09:58:26;32.93;;;22.87;;
41887;SDS011;63122;52.424;13.458;2022-11-15T10:01:04;28.70;;;19.93;;
41887;SDS011;63122;52.424;13.458;2022-11-15T10:03:41;28.60;;;20.83;;
41887;SDS011;63122;52.424;13.458;2022-11-15T10:06:15;30.07;;;20.10;;
41887;SDS011;63122;52.424;13.458;2022-11-15T10:08:54;26.67;;;19.43;;
41887;SDS011;63122;52.424;13.458;2022-11-15T10:11:34;27.30;;;19.67;;
41887;SDS011;63122;52.424;13.458;2022-11-15T10:14:08;27.47;;;20.53;;
41887;SDS011;63122;52.424;13.458;2022-11-15T10:19:38;31.23;;;18.80;;
41887;SDS011;63122;52.424;13.458;2022-11-15T10:22:23;28.47;;;18.37;;
41887;SDS011;63122;52.424;13.458;2022-11-15T10:24:59;29.67;;;20.60;;
41887;SDS011;63122;52.424;13.458;2022-11-15T10:27:44;29.10;;;20.13;;
41887;SDS011;63122;52.424;13.458;2022-11-15T10:30:19;29.90;;;19.40;;
41887;SDS011;63122;52.424;13.458;2022-11-15T10:32:50;26.43;;;19.40;;
41887;SDS011;63122;52.424;13.458;2022-11-15T10:35:22;30.52;;;19.77;;
41887;SDS011;63122;52.424;13.458;2022-11-15T10:38:03;27.03;;;19.10;;
41887;SDS011;63122;52.424;13.458;2022-11-15T10:40:35;26.52;;;19.58;;
41887;SDS011;63122;52.424;13.458;2022-11-15T10:43:15;27.20;;;18.83;;
41887;SDS011;63122;52.424;13.458;2022-11-15T10:45:47;24.42;;;18.48;;
41887;SDS011;63122;52.424;13.458;2022-11-15T10:48:21;25.67;;;17.70;;
41887;SDS011;63122;52.424;13.458;2022-11-15T10:50:55;24.70;;;17.40;;
41887;SDS011;63122;52.424;13.458;2022-11-15T10:53:27;22.63;;;17.13;;
41887;SDS011;63122;52.424;13.458;2022-11-15T10:56:02;24.63;;;16.10;;
41887;SDS011;63122;52.424;13.458;2022-11-15T10:58:38;22.83;;;16.27;;
41887;SDS011;63122;52.424;13.458;2022-11-15T11:01:13;24.40;;;16.17;;
41887;SDS011;63122;52.424;13.458;2022-11-15T11:03:57;35.60;;;17.02;;
41887;SDS011;63122;52.424;13.458;2022-11-15T11:06:28;25.90;;;16.92;;
41887;SDS011;63122;52.424;13.458;2022-11-15T11:09:00;26.33;;;16.83;;
41887;SDS011;63122;52.424;13.458;2022-11-15T11:11:43;23.10;;;15.90;;
41887;SDS011;63122;52.424;13.458;2022-11-15T11:14:20;21.05;;;15.75;;
41887;SDS011;63122;52.424;13.458;2022-11-15T11:16:54;20.55;;;15.00;;
41887;SDS011;63122;52.424;13.458;2022-11-15T11:22:27;25.08;;;16.25;;
41887;SDS011;63122;52.424;13.458;2022-11-15T11:25:09;27.30;;;17.63;;
41887;SDS011;63122;52.424;13.458;2022-11-15T11:27:54;23.30;;;16.05;;
41887;SDS011;63122;52.424;13.458;2022-11-15T11:30:40;21.35;;;15.23;;
41887;SDS011;63122;52.424;13.458;2022-11-15T11:33:18;19.58;;;15.90;;
41887;SDS011;63122;52.424;13.458;2022-11-15T11:35:55;21.40;;;15.65;;
41887;SDS011;63122;52.424;13.458;2022-11-15T11:38:42;23.58;;;15.32;;
41887;SDS011;63122;52.424;13.458;2022-11-15T11:41:27;23.67;;;16.90;;
41887;SDS011;63122;52.424;13.458;2022-11-15T11:44:15;22.17;;;16.30;;
41887;SDS011;63122;52.424;13.458;2022-11-15T11:46:58;27.98;;;16.08;;
41887;SDS011;63122;52.424;13.458;2022-11-15T11:49:32;23.02;;;15.63;;
41887;SDS011;63122;52.424;13.458;2022-11-15T11:52:09;28.67;;;15.50;;
41887;SDS011;63122;52.424;13.458;2022-11-15T11:54:47;20.77;;;16.55;;
41887;SDS011;63122;52.424;13.458;2022-11-15T11:57:29;26.45;;;15.48;;
41887;SDS011;63122;52.424;13.458;2022-11-15T12:00:13;20.60;;;15.68;;
41887;SDS011;63122;52.424;13.458;2022-11-15T12:02:53;22.42;;;15.57;;
41887;SDS011;63122;52.424;13.458;2022-11-15T12:05:34;21.75;;;14.60;;
41887;SDS011;63122;52.424;13.458;2022-11-15T12:08:22;19.15;;;14.00;;
41887;SDS011;63122;52.424;13.458;2022-11-15T12:10:59;19.90;;;14.73;;
41887;SDS011;63122;52.424;13.458;2022-11-15T12:13:36;18.15;;;13.65;;
41887;SDS011;63122;52.424;13.458;2022-11-15T12:16:10;19.08;;;13.18;;
41887;SDS011;63122;52.424;13.458;2022-11-15T12:22:27;19.27;;;12.32;;
41887;SDS011;63122;52.424;13.458;2022-11-15T12:25:07;16.27;;;11.80;;
41887;SDS011;63122;52.424;13.458;2022-11-15T12:27:46;23.02;;;12.63;;
41887;SDS011;63122;52.424;13.458;2022-11-15T12:30:20;18.40;;;12.52;;
41887;SDS011;63122;52.424;13.458;2022-11-15T12:32:53;16.40;;;12.38;;
41887;SDS011;63122;52.424;13.458;2022-11-15T12:35:31;19.55;;;12.20;;
41887;SDS011;63122;52.424;13.458;2022-11-15T12:38:08;18.70;;;12.77;;
41887;SDS011;63122;52.424;13.458;2022-11-15T12:41:11;23.70;;;16.70;;
41887;SDS011;63122;52.424;13.458;2022-11-15T12:43:44;15.13;;;11.60;;
41887;SDS011;63122;52.424;13.458;2022-11-15T12:46:20;16.48;;;12.00;;
41887;SDS011;63122;52.424;13.458;2022-11-15T12:48:55;20.60;;;11.40;;
41887;SDS011;63122;52.424;13.458;2022-11-15T12:57:30;14.30;;;11.73;;
41887;SDS011;63122;52.424;13.458;2022-11-15T13:03:21;16.63;;;11.75;;
41887;SDS011;63122;52.424;13.458;2022-11-15T13:06:01;16.27;;;11.25;;
41887;SDS011;63122;52.424;13.458;2022-11-15T13:08:46;20.40;;;12.05;;
41887;SDS011;63122;52.424;13.458;2022-11-15T13:19:58;18.60;;;11.40;;
41887;SDS011;63122;52.424;13.458;2022-11-15T13:22:38;14.93;;;11.63;;
41887;SDS011;63122;52.424;13.458;2022-11-15T13:25:28;17.15;;;12.48;;
41887;SDS011;63122;52.424;13.458;2022-11-15T13:28:21;14.18;;;10.98;;
41887;SDS011;63122;52.424;13.458;2022-11-15T13:30:58;19.45;;;11.75;;
41887;SDS011;63122;52.424;13.458;2022-11-15T13:33:31;17.67;;;11.43;;
41887;SDS011;63122;52.424;13.458;2022-11-15T13:36:05;17.40;;;11.75;;
41887;SDS011;63122;52.424;13.458;2022-11-15T13:38:39;17.33;;;11.70;;
41887;SDS011;63122;52.424;13.458;2022-11-15T13:41:13;18.02;;;11.35;;
41887;SDS011;63122;52.424;13.458;2022-11-15T13:43:51;17.00;;;11.10;;
41887;SDS011;63122;52.424;13.458;2022-11-15T13:46:23;22.10;;;11.90;;
41887;SDS011;63122;52.424;13.458;2022-11-15T13:48:55;19.38;;;12.40;;
41887;SDS011;63122;52.424;13.458;2022-11-15T13:51:29;20.58;;;11.68;;
41887;SDS011;63122;52.424;13.458;2022-11-15T13:54:08;17.95;;;12.10;;
41887;SDS011;63122;52.424;13.458;2022-11-15T13:56:47;17.42;;;11.82;;
41887;SDS011;63122;52.424;13.458;2022-11-15T13:59:27;19.90;;;11.65;;
41887;SDS011;63122;52.424;13.458;2022-11-15T14:02:01;19.15;;;12.05;;
41887;SDS011;63122;52.424;13.458;2022-11-15T14:04:45;16.38;;;12.23;;
41887;SDS011;63122;52.424;13.458;2022-11-15T14:07:18;20.55;;;13.48;;
41887;SDS011;63122;52.424;13.458;2022-11-15T14:09:49;20.75;;;11.80;;
41887;SDS011;63122;52.424;13.458;2022-11-15T14:12:25;20.40;;;12.35;;
41887;SDS011;63122;52.424;13.458;2022-11-15T14:17:55;24.73;;;12.75;;
41887;SDS011;63122;52.424;13.458;2022-11-15T14:20:27;15.23;;;10.85;;
41887;SDS011;63122;52.424;13.458;2022-11-15T14:23:03;18.58;;;11.65;;
41887;SDS011;63122;52.424;13.458;2022-11-15T14:25:35;17.33;;;11.38;;
41887;SDS011;63122;52.424;13.458;2022-11-15T14:28:14;18.33;;;11.73;;
41887;SDS011;63122;52.424;13.458;2022-11-15T14:31:06;18.45;;;11.45;;
41887;SDS011;63122;52.424;13.458;2022-11-15T14:33:42;21.73;;;10.90;;
41887;SDS011;63122;52.424;13.458;2022-11-15T14:36:12;23.48;;;11.20;;
41887;SDS011;63122;52.424;13.458;2022-11-15T14:38:45;14.30;;;10.35;;
41887;SDS011;63122;52.424;13.458;2022-11-15T14:41:17;16.50;;;10.77;;
41887;SDS011;63122;52.424;13.458;2022-11-15T14:43:49;19.05;;;11.45;;
41887;SDS011;63122;52.424;13.458;2022-11-15T14:46:23;15.05;;;11.18;;
41887;SDS011;63122;52.424;13.458;2022-11-15T14:48:53;19.65;;;11.75;;
41887;SDS011;63122;52.424;13.458;2022-11-15T14:51:23;27.55;;;19.00;;
41887;SDS011;63122;52.424;13.458;2022-11-15T14:53:54;26.15;;;17.45;;
41887;SDS011;63122;52.424;13.458;2022-11-15T14:56:24;16.67;;;11.43;;
41887;SDS011;63122;52.424;13.458;2022-11-15T14:58:55;19.60;;;11.95;;
41887;SDS011;63122;52.424;13.458;2022-11-15T15:01:28;23.52;;;12.48;;
41887;SDS011;63122;52.424;13.458;2022-11-15T15:03:59;16.60;;;11.93;;
41887;SDS011;63122;52.424;13.458;2022-11-15T15:06:29;18.50;;;12.00;;
41887;SDS011;63122;52.424;13.458;2022-11-15T15:09:00;18.60;;;12.30;;
41887;SDS011;63122;52.424;13.458;2022-11-15T15:11:31;19.10;;;11.05;;
41887;SDS011;63122;52.424;13.458;2022-11-15T15:14:01;17.25;;;11.07;;
41887;SDS011;63122;52.424;13.458;2022-11-15T15:16:34;15.35;;;11.55;;
41887;SDS011;63122;52.424;13.458;2022-11-15T15:19:04;18.95;;;11.43;;
41887;SDS011;63122;52.424;13.458;2022-11-15T15:21:35;16.80;;;11.57;;
41887;SDS011;63122;52.424;13.458;2022-11-15T15:24:05;17.48;;;11.57;;
41887;SDS011;63122;52.424;13.458;2022-11-15T15:26:35;16.60;;;12.30;;